createdAt,value
2023-04-09T00:02:10.716Z,96131.16
2023-04-09T00:04:42.291Z,96122.44
2023-04-09T00:07:13.839Z,96124.47
2023-04-09T00:09:45.323Z,96123.56
2023-04-09T00:12:16.831Z,96118.28
2023-04-09T00:14:48.354Z,96112.66
2023-04-09T00:17:19.914Z,96119.97
2023-04-09T00:19:51.455Z,96117.31
2023-04-09T00:22:22.941Z,96117.78
2023-04-09T00:24:54.416Z,96118.75
2023-04-09T00:27:25.898Z,96113.00
2023-04-09T00:29:57.386Z,96102.88
2023-04-09T00:32:28.858Z,96108.94
2023-04-09T00:35:00.410Z,96105.22
2023-04-09T00:37:31.901Z,96109.59
2023-04-09T00:40:04.171Z,96111.91
2023-04-09T00:42:37.499Z,96113.91
2023-04-09T00:45:09.369Z,96114.38
2023-04-09T00:47:43.077Z,96105.97
2023-04-09T00:50:14.686Z,96113.91
2023-04-09T00:52:46.256Z,96106.63
2023-04-09T00:55:18.820Z,96113.59
2023-04-09T00:57:50.299Z,96107.09
2023-04-09T01:00:21.971Z,96106.00
2023-04-09T01:02:55.813Z,96110.50
2023-04-09T01:05:34.508Z,96108.19
2023-04-09T01:08:52.166Z,96103.34
2023-04-09T01:11:38.862Z,96107.09
2023-04-09T01:14:35.483Z,96100.56
2023-04-09T01:17:17.551Z,96101.81
2023-04-09T01:20:01.749Z,96111.31
2023-04-09T01:22:51.396Z,96103.22
2023-04-09T01:25:53.460Z,96105.72
2023-04-09T01:28:33.587Z,96101.06
2023-04-09T01:31:11.827Z,96097.63
2023-04-09T01:33:44.770Z,96099.97
2023-04-09T01:36:17.229Z,96104.47
2023-04-09T01:38:51.320Z,96100.59
2023-04-09T01:41:24.960Z,96110.53
2023-04-09T01:43:57.580Z,96102.00
2023-04-09T01:46:30.099Z,96106.34
2023-04-09T01:49:02.798Z,96107.91
2023-04-09T01:51:34.880Z,96106.34
2023-04-09T01:54:06.420Z,96107.44
2023-04-09T01:56:46.337Z,96112.41
2023-04-09T01:59:17.893Z,96110.53
2023-04-09T02:02:01.303Z,96113.63
2023-04-09T02:04:34.337Z,96111.00
2023-04-09T02:07:27.561Z,96115.50
2023-04-09T02:10:00.886Z,96115.19
2023-04-09T02:12:36.339Z,96116.00
2023-04-09T02:15:08.413Z,96119.69
2023-04-09T02:17:40.081Z,96115.06
2023-04-09T02:20:12.104Z,96108.22
2023-04-09T02:22:43.622Z,96109.75
2023-04-09T02:25:15.584Z,96103.25
2023-04-09T02:27:47.132Z,96100.16
2023-04-09T02:30:18.575Z,96093.91
2023-04-09T02:32:50.159Z,96100.63
2023-04-09T02:35:21.731Z,96099.66
2023-04-09T02:37:53.172Z,96098.44
2023-04-09T02:40:24.687Z,96103.56
2023-04-09T02:42:56.208Z,96100.28
2023-04-09T02:45:27.676Z,96103.72
2023-04-09T02:47:59.192Z,96100.16
2023-04-09T02:50:30.754Z,96099.19
2023-04-09T02:53:02.317Z,96098.56
2023-04-09T02:55:33.856Z,96095.13
2023-04-09T02:58:05.597Z,96094.38
2023-04-09T03:00:37.068Z,96085.97
2023-04-09T03:03:08.873Z,96093.91
2023-04-09T03:05:40.520Z,96090.81
2023-04-09T03:08:12.060Z,96089.41
2023-04-09T03:10:43.566Z,96086.00
2023-04-09T03:13:15.388Z,96089.72
2023-04-09T03:15:51.902Z,96083.19
2023-04-09T03:18:23.486Z,96089.41
2023-04-09T03:20:54.933Z,96077.94
2023-04-09T03:23:26.481Z,96082.75
2023-04-09T03:26:05.359Z,96079.94
2023-04-09T03:28:36.923Z,96076.97
2023-04-09T03:31:08.416Z,96079.31
2023-04-09T03:33:40.152Z,96082.25
2023-04-09T03:36:11.634Z,96078.38
2023-04-09T03:38:43.126Z,96076.97
2023-04-09T03:41:14.585Z,96076.97
2023-04-09T03:43:46.035Z,96082.44
2023-04-09T03:46:18.162Z,96085.41
2023-04-09T03:48:49.990Z,96083.22
2023-04-09T03:51:21.685Z,96087.22
2023-04-09T03:53:53.171Z,96081.50
2023-04-09T03:56:24.601Z,96079.31
2023-04-09T03:58:56.074Z,96090.69
2023-04-09T04:01:27.488Z,96099.06
2023-04-09T04:03:59.068Z,96100.63
2023-04-09T04:06:33.578Z,96104.03
2023-04-09T04:09:05.192Z,96099.06
2023-04-09T04:11:36.728Z,96107.59
2023-04-09T04:14:08.247Z,96113.97
2023-04-09T04:16:42.576Z,96122.38
2023-04-09T04:19:14.163Z,96116.91
2023-04-09T04:21:45.646Z,96119.88
2023-04-09T04:24:17.169Z,96115.34
2023-04-09T04:26:48.635Z,96114.09
2023-04-09T04:29:20.150Z,96118.13
2023-04-09T04:31:51.609Z,96122.91
2023-04-09T04:34:23.195Z,96126.66
2023-04-09T04:36:54.673Z,96131.63
2023-04-09T04:39:26.285Z,96128.97
2023-04-09T04:41:57.737Z,96136.13
2023-04-09T04:44:29.459Z,96125.56
2023-04-09T04:47:00.972Z,96125.88
2023-04-09T04:49:32.482Z,96119.66
2023-04-09T04:52:04.002Z,96112.34
2023-04-09T04:54:35.556Z,96112.00
2023-04-09T04:57:07.026Z,96114.81
2023-04-09T04:59:39.949Z,96119.31
2023-04-09T05:02:11.817Z,96112.16
2023-04-09T05:04:43.395Z,96111.06
2023-04-09T05:07:14.842Z,96116.66
2023-04-09T05:09:46.337Z,96099.06
2023-04-09T05:12:18.072Z,96100.50
2023-04-09T05:14:49.648Z,96105.03
2023-04-09T05:17:21.091Z,96108.47
2023-04-09T05:19:53.590Z,96119.34
2023-04-09T05:22:25.084Z,96135.69
2023-04-09T05:24:56.546Z,96133.06
2023-04-09T05:27:28.897Z,96137.25
2023-04-09T05:30:01.025Z,96139.78
2023-04-09T05:32:32.721Z,96143.03
2023-04-09T05:35:04.738Z,96141.47
2023-04-09T05:37:36.215Z,96149.09
2023-04-09T05:40:08.274Z,96149.56
2023-04-09T05:42:39.736Z,96146.63
2023-04-09T05:45:11.442Z,96156.25
2023-04-09T05:47:42.965Z,96156.88
2023-04-09T05:50:14.487Z,96146.78
2023-04-09T05:52:46.054Z,96148.97
2023-04-09T05:55:17.513Z,96151.59
2023-04-09T05:57:49.105Z,96148.50
2023-04-09T06:00:21.683Z,96160.94
2023-04-09T06:02:53.227Z,96150.66
2023-04-09T06:05:24.780Z,96141.03
2023-04-09T06:07:56.473Z,96146.91
2023-04-09T06:10:27.997Z,96153.28
2023-04-09T06:12:59.562Z,96144.75
2023-04-09T06:15:31.354Z,96146.59
2023-04-09T06:18:03.210Z,96151.72
2023-04-09T06:20:34.743Z,96150.31
2023-04-09T06:23:06.284Z,96143.78
2023-04-09T06:25:37.803Z,96142.09
2023-04-09T06:28:09.271Z,96149.69
2023-04-09T06:30:41.321Z,96153.09
2023-04-09T06:33:12.931Z,96158.22
2023-04-09T06:35:44.432Z,96156.50
2023-04-09T06:38:16.645Z,96163.03
2023-04-09T06:40:48.184Z,96163.97
2023-04-09T06:43:19.704Z,96166.13
2023-04-09T06:45:51.404Z,96170.38
2023-04-09T06:48:22.988Z,96166.59
2023-04-09T06:50:54.570Z,96170.47
2023-04-09T06:53:26.186Z,96166.69
2023-04-09T06:55:57.699Z,96174.47
2023-04-09T06:58:29.141Z,96165.25
2023-04-09T07:01:01.035Z,96175.06
2023-04-09T07:03:32.806Z,96169.75
2023-04-09T07:06:04.498Z,96166.75
2023-04-09T07:08:36.224Z,96173.75
2023-04-09T07:11:07.812Z,96164.06
2023-04-09T07:13:39.349Z,96162.81
2023-04-09T07:16:10.957Z,96170.56
2023-04-09T07:18:42.567Z,96164.13
2023-04-09T07:21:14.103Z,96174.09
2023-04-09T07:23:45.821Z,96176.28
2023-04-09T07:26:17.457Z,96174.63
2023-04-09T07:28:48.955Z,96168.03
2023-04-09T07:31:20.475Z,96171.22
2023-04-09T07:33:52.135Z,96170.81
2023-04-09T07:36:23.898Z,96173.63
2023-04-09T07:38:55.722Z,96176.66
2023-04-09T07:41:27.258Z,96176.91
2023-04-09T07:43:59.277Z,96168.88
2023-04-09T07:46:30.813Z,96171.28
2023-04-09T07:49:02.352Z,96164.47
2023-04-09T07:51:33.813Z,96166.47
2023-04-09T07:54:05.811Z,96165.63
2023-04-09T07:56:37.348Z,96162.75
2023-04-09T07:59:08.906Z,96174.50
2023-04-09T08:01:40.558Z,96165.66
2023-04-09T08:04:13.798Z,96163.22
2023-04-09T08:06:51.071Z,96157.81
2023-04-09T08:09:23.346Z,96164.47
2023-04-09T08:11:54.866Z,96159.28
2023-04-09T08:14:26.401Z,96163.38
2023-04-09T08:16:57.831Z,96163.28
2023-04-09T08:19:29.342Z,96172.38
2023-04-09T08:22:01.505Z,96163.66
2023-04-09T08:24:33.069Z,96167.88
2023-04-09T08:27:04.577Z,96173.56
2023-04-09T08:29:36.051Z,96167.94
2023-04-09T08:32:08.109Z,96171.13
2023-04-09T08:34:39.701Z,96175.97
2023-04-09T08:37:11.261Z,96181.06
2023-04-09T08:39:42.757Z,96178.97
2023-04-09T08:42:15.143Z,96174.47
2023-04-09T08:44:46.541Z,96182.16
2023-04-09T08:47:20.576Z,96182.94
2023-04-09T08:49:52.227Z,96185.88
2023-04-09T08:52:33.265Z,96183.25
2023-04-09T08:55:05.281Z,96181.56
2023-04-09T08:57:39.759Z,96184.06
2023-04-09T09:00:12.293Z,96178.94
2023-04-09T09:03:03.402Z,96186.53
2023-04-09T09:05:45.854Z,96178.03
2023-04-09T09:08:26.755Z,96180.31
2023-04-09T09:10:58.536Z,96184.59
2023-04-09T09:13:30.237Z,96185.66
2023-04-09T09:16:16.134Z,96188.31
2023-04-09T09:18:48.283Z,96190.31
2023-04-09T09:21:19.849Z,96185.06
2023-04-09T09:23:51.374Z,96176.22
2023-04-09T09:26:28.793Z,96178.22
2023-04-09T09:29:04.143Z,96184.06
2023-04-09T09:31:49.128Z,96186.91
2023-04-09T09:34:22.503Z,96184.06
2023-04-09T09:36:54.288Z,96177.13
2023-04-09T09:39:44.293Z,96180.19
2023-04-09T09:42:16.097Z,96182.16
2023-04-09T09:44:48.351Z,96181.75
2023-04-09T09:47:21.526Z,96183.50
2023-04-09T09:49:53.160Z,96192.19
2023-04-09T09:52:26.975Z,96184.88
2023-04-09T09:55:05.285Z,96185.19
2023-04-09T09:57:40.634Z,96184.84
2023-04-09T10:00:14.117Z,96178.22
2023-04-09T10:02:59.223Z,96183.47
2023-04-09T10:05:31.474Z,96179.06
2023-04-09T10:08:04.548Z,96187.38
2023-04-09T10:10:38.191Z,96177.28
2023-04-09T10:13:16.107Z,96183.44
2023-04-09T10:15:48.762Z,96178.25
2023-04-09T10:18:21.359Z,96178.59
2023-04-09T10:20:58.780Z,96170.81
2023-04-09T10:23:39.660Z,96176.25
2023-04-09T10:26:11.666Z,96178.22
2023-04-09T10:28:43.412Z,96172.94
2023-04-09T10:31:15.070Z,96167.41
2023-04-09T10:33:46.761Z,96185.38
2023-04-09T10:36:19.257Z,96181.00
2023-04-09T10:38:51.590Z,96178.50
2023-04-09T10:41:27.908Z,96171.91
2023-04-09T10:43:59.579Z,96184.22
2023-04-09T10:46:36.314Z,96177.06
2023-04-09T10:49:18.506Z,96178.50
2023-04-09T10:52:12.028Z,96169.31
2023-04-09T10:54:46.217Z,96171.16
2023-04-09T10:57:22.254Z,96172.41
2023-04-09T10:59:55.871Z,96168.09
2023-04-09T11:02:39.971Z,96161.38
2023-04-09T11:05:18.222Z,96169.97
2023-04-09T11:07:57.450Z,96171.16
2023-04-09T11:10:29.292Z,96175.13
2023-04-09T11:13:01.379Z,96170.84
2023-04-09T11:15:36.856Z,96176.19
2023-04-09T11:18:09.878Z,96168.75
2023-04-09T11:20:41.907Z,96160.25
2023-04-09T11:23:14.210Z,96162.38
2023-04-09T11:25:49.006Z,96160.94
2023-04-09T11:28:21.018Z,96170.13
2023-04-09T11:30:53.220Z,96168.69
2023-04-09T11:33:31.416Z,96160.59
2023-04-09T11:36:05.757Z,96167.84
2023-04-09T11:38:38.941Z,96157.25
2023-04-09T11:41:13.510Z,96163.59
2023-04-09T11:43:45.357Z,96156.84
2023-04-09T11:46:17.353Z,96170.53
2023-04-09T11:48:49.025Z,96165.78
2023-04-09T11:51:21.175Z,96166.66
2023-04-09T11:53:52.914Z,96170.56
2023-04-09T11:56:25.307Z,96175.03
2023-04-09T11:58:57.282Z,96180.09
2023-04-09T12:01:34.934Z,96178.69
2023-04-09T12:04:07.919Z,96182.69
2023-04-09T12:06:42.981Z,96176.44
2023-04-09T12:09:14.838Z,96184.72
2023-04-09T12:11:46.638Z,96179.94
2023-04-09T12:14:21.462Z,96183.28
2023-04-09T12:16:53.123Z,96169.66
2023-04-09T12:19:28.177Z,96186.22
2023-04-09T12:21:59.673Z,96181.28
2023-04-09T12:24:31.222Z,96174.25
2023-04-09T12:27:02.928Z,96177.72
2023-04-09T12:29:34.880Z,96177.63
2023-04-09T12:32:06.496Z,96178.75
2023-04-09T12:34:38.070Z,96176.94
2023-04-09T12:37:09.739Z,96174.41
2023-04-09T12:39:41.678Z,96168.28
2023-04-09T12:42:13.198Z,96179.97
2023-04-09T12:44:44.759Z,96176.81
2023-04-09T12:47:16.355Z,96169.94
2023-04-09T12:49:50.045Z,96169.47
2023-04-09T12:52:22.556Z,96164.59
2023-04-09T12:54:54.050Z,96170.09
2023-04-09T12:57:25.757Z,96161.78
2023-04-09T12:59:57.672Z,96158.47
2023-04-09T13:02:30.062Z,96153.31
2023-04-09T13:05:02.465Z,96154.09
2023-04-09T13:07:33.916Z,96152.72
2023-04-09T13:10:06.107Z,96148.25
2023-04-09T13:12:37.645Z,96147.06
2023-04-09T13:15:09.447Z,96158.63
2023-04-09T13:17:41.059Z,96149.16
2023-04-09T13:20:12.792Z,96158.56
2023-04-09T13:22:48.733Z,96146.63
2023-04-09T13:25:20.436Z,96153.38
2023-04-09T13:27:52.109Z,96155.34
2023-04-09T13:30:23.604Z,96150.69
2023-04-09T13:32:55.404Z,96161.22
2023-04-09T13:35:27.182Z,96160.69
2023-04-09T13:37:58.726Z,96161.78
2023-04-09T13:40:30.399Z,96152.88
2023-04-09T13:43:02.089Z,96156.97
2023-04-09T13:45:33.673Z,96155.16
2023-04-09T13:48:07.024Z,96152.56
2023-04-09T13:50:38.635Z,96155.34
2023-04-09T13:53:10.135Z,96157.41
2023-04-09T13:55:41.641Z,96151.16
2023-04-09T13:58:13.174Z,96152.25
2023-04-09T14:00:44.725Z,96150.53
2023-04-09T14:03:16.508Z,96146.34
2023-04-09T14:05:49.122Z,96141.06
2023-04-09T14:08:22.939Z,96128.59
2023-04-09T14:10:54.502Z,96131.94
2023-04-09T14:13:26.056Z,96133.59
2023-04-09T14:15:59.922Z,96122.94
2023-04-09T14:18:31.806Z,96121.97
2023-04-09T14:21:03.416Z,96113.69
2023-04-09T14:23:35.181Z,96108.22
2023-04-09T14:26:06.988Z,96108.56
2023-04-09T14:28:38.464Z,96116.44
2023-04-09T14:31:10.044Z,96115.16
2023-04-09T14:33:41.662Z,96119.53
2023-04-09T14:36:13.269Z,96119.91
2023-04-09T14:38:44.853Z,96118.13
2023-04-09T14:41:16.897Z,96117.56
2023-04-09T14:43:48.390Z,96120.09
2023-04-09T14:46:20.311Z,96121.69
2023-04-09T14:48:51.937Z,96114.06
2023-04-09T14:51:23.715Z,96114.16
2023-04-09T14:53:55.280Z,96110.78
2023-04-09T14:56:27.108Z,96126.09
2023-04-09T14:58:58.636Z,96129.28
2023-04-09T15:01:32.536Z,96124.97
2023-04-09T15:04:04.671Z,96115.44
2023-04-09T15:06:36.310Z,96106.66
2023-04-09T15:09:07.941Z,96098.91
2023-04-09T15:11:40.025Z,96101.38
2023-04-09T15:14:11.558Z,96100.38
2023-04-09T15:16:43.153Z,96107.03
2023-04-09T15:19:14.702Z,96100.72
2023-04-09T15:21:46.266Z,96102.47
2023-04-09T15:24:17.741Z,96103.19
2023-04-09T15:26:49.820Z,96099.41
2023-04-09T15:29:21.462Z,96100.38
2023-04-09T15:31:53.345Z,96104.88
2023-04-09T15:34:26.125Z,96111.19
2023-04-09T15:36:57.702Z,96105.81
2023-04-09T15:39:29.247Z,96108.44
2023-04-09T15:42:01.826Z,96120.53
2023-04-09T15:44:33.341Z,96110.00
2023-04-09T15:47:04.835Z,96114.53
2023-04-09T15:49:36.872Z,96103.34
2023-04-09T15:52:08.468Z,96098.66
2023-04-09T15:54:39.963Z,96097.13
2023-04-09T15:57:11.734Z,96093.25
2023-04-09T15:59:43.102Z,96093.63
2023-04-09T16:02:14.866Z,96090.16
2023-04-09T16:04:46.283Z,96085.97
2023-04-09T16:07:17.944Z,96095.41
2023-04-09T16:09:49.493Z,96092.88
2023-04-09T16:12:21.259Z,96093.44
2023-04-09T16:14:52.987Z,96102.03
2023-04-09T16:17:24.937Z,96106.81
2023-04-09T16:19:56.534Z,96103.50
2023-04-09T16:22:28.944Z,96105.53
2023-04-09T16:25:00.498Z,96106.50
2023-04-09T16:27:32.108Z,96111.63
2023-04-09T16:30:04.164Z,96114.59
2023-04-09T16:32:35.845Z,96110.75
2023-04-09T16:35:07.683Z,96108.41
2023-04-09T16:37:39.198Z,96117.34
2023-04-09T16:40:10.833Z,96118.38
2023-04-09T16:42:42.266Z,96118.38
2023-04-09T16:45:13.757Z,96119.94
2023-04-09T16:47:49.651Z,96117.75
2023-04-09T16:50:22.831Z,96115.06
2023-04-09T16:52:54.331Z,96114.03
2023-04-09T16:55:26.024Z,96116.75
2023-04-09T16:57:57.533Z,96125.31
2023-04-09T17:00:29.156Z,96117.44
2023-04-09T17:03:00.900Z,96112.97
2023-04-09T17:05:32.720Z,96116.91
2023-04-09T17:08:05.973Z,96116.38
2023-04-09T17:10:37.500Z,96116.19
2023-04-09T17:13:09.198Z,96115.38
2023-04-09T17:15:41.438Z,96120.09
2023-04-09T17:18:12.887Z,96120.59
2023-04-09T17:20:44.373Z,96121.88
2023-04-09T17:23:16.113Z,96117.94
2023-04-09T17:25:48.498Z,96121.69
2023-04-09T17:28:20.089Z,96127.44
2023-04-09T17:30:51.980Z,96126.84
2023-04-09T17:33:23.473Z,96127.41
2023-04-09T17:35:55.137Z,96128.88
2023-04-09T17:38:26.990Z,96134.53
2023-04-09T17:40:58.604Z,96134.34
2023-04-09T17:43:30.081Z,96138.75
2023-04-09T17:46:01.735Z,96136.69
2023-04-09T17:48:33.308Z,96140.38
2023-04-09T17:51:05.739Z,96145.44
2023-04-09T17:53:37.211Z,96149.03
2023-04-09T17:56:09.862Z,96145.84
2023-04-09T17:58:41.364Z,96146.88
2023-04-09T18:01:13.716Z,96148.25
2023-04-09T18:03:48.381Z,96154.75
2023-04-09T18:06:20.078Z,96161.88
2023-04-09T18:08:52.432Z,96157.16
2023-04-09T18:11:24.502Z,96150.50
2023-04-09T18:13:56.234Z,96159.00
2023-04-09T18:16:28.303Z,96155.34
2023-04-09T18:18:59.895Z,96164.34
2023-04-09T18:21:31.840Z,96159.59
2023-04-09T18:24:04.154Z,96163.50
2023-04-09T18:26:36.707Z,96159.09
2023-04-09T18:29:08.562Z,96162.13
2023-04-09T18:31:40.261Z,96169.66
2023-04-09T18:34:11.791Z,96169.88
2023-04-09T18:36:43.367Z,96174.66
2023-04-09T18:39:15.197Z,96182.44
2023-04-09T18:41:47.077Z,96185.72
2023-04-09T18:44:18.797Z,96180.66
2023-04-09T18:46:50.496Z,96181.22
2023-04-09T18:49:21.997Z,96192.84
2023-04-09T18:51:53.466Z,96195.72
2023-04-09T18:54:26.174Z,96198.16
2023-04-09T18:56:57.794Z,96188.19
2023-04-09T18:59:30.010Z,96194.03
2023-04-09T19:02:05.863Z,96199.22
2023-04-09T19:04:40.041Z,96201.63
2023-04-09T19:07:11.844Z,96209.81
2023-04-09T19:09:44.484Z,96215.09
2023-04-09T19:12:16.533Z,96208.34
2023-04-09T19:14:48.097Z,96213.97
2023-04-09T19:17:19.906Z,96208.19
2023-04-09T19:19:51.542Z,96209.31
2023-04-09T19:22:23.112Z,96203.88
2023-04-09T19:24:54.744Z,96213.16
2023-04-09T19:27:26.622Z,96212.59
2023-04-09T19:30:02.299Z,96218.44
2023-04-09T19:32:34.147Z,96208.66
2023-04-09T19:35:07.096Z,96214.69
2023-04-09T19:37:39.769Z,96219.09
2023-04-09T19:40:11.531Z,96213.19
2023-04-09T19:42:44.749Z,96215.41
2023-04-09T19:45:16.810Z,96207.00
2023-04-09T19:47:48.398Z,96213.06
2023-04-09T19:50:19.910Z,96214.69
2023-04-09T19:52:52.292Z,96211.91
2023-04-09T19:55:24.937Z,96218.19
2023-04-09T19:57:56.657Z,96211.19
2023-04-09T20:00:28.832Z,96214.34
2023-04-09T20:03:00.604Z,96215.63
2023-04-09T20:05:32.728Z,96214.28
2023-04-09T20:08:04.583Z,96210.59
2023-04-09T20:10:42.780Z,96213.09
2023-04-09T20:13:14.364Z,96220.47
2023-04-09T20:15:45.944Z,96217.22
2023-04-09T20:18:17.457Z,96224.25
2023-04-09T20:20:50.566Z,96223.00
2023-04-09T20:23:22.214Z,96225.41
2023-04-09T20:25:54.994Z,96215.63
2023-04-09T20:28:27.722Z,96209.06
2023-04-09T20:31:02.987Z,96216.88
2023-04-09T20:33:34.642Z,96210.97
2023-04-09T20:36:16.946Z,96208.22
2023-04-09T20:38:48.599Z,96213.22
2023-04-09T20:41:20.218Z,96214.19
2023-04-09T20:43:51.720Z,96210.94
2023-04-09T20:46:23.241Z,96212.34
2023-04-09T20:48:55.714Z,96218.25
2023-04-09T20:51:28.212Z,96212.50
2023-04-09T20:53:59.782Z,96215.47
2023-04-09T20:56:32.037Z,96213.28
2023-04-09T20:59:03.881Z,96225.28
2023-04-09T21:01:35.844Z,96216.56
2023-04-09T21:04:07.639Z,96220.59
2023-04-09T21:06:40.300Z,96215.94
2023-04-09T21:09:11.874Z,96220.13
2023-04-09T21:11:43.367Z,96223.75
2023-04-09T21:14:14.849Z,96224.66
2023-04-09T21:16:46.477Z,96226.53
2023-04-09T21:19:18.264Z,96224.22
2023-04-09T21:21:49.962Z,96221.09
2023-04-09T21:24:21.522Z,96227.00
2023-04-09T21:26:53.029Z,96218.94
2023-04-09T21:29:24.594Z,96220.34
2023-04-09T21:31:56.258Z,96215.38
2023-04-09T21:34:27.802Z,96216.28
2023-04-09T21:37:01.983Z,96215.38
2023-04-09T21:39:33.572Z,96223.91
2023-04-09T21:42:06.357Z,96223.59
2023-04-09T21:44:38.950Z,96218.94
2023-04-09T21:47:12.023Z,96220.34
2023-04-09T21:49:43.669Z,96223.44
2023-04-09T21:52:15.245Z,96228.28
2023-04-09T21:54:46.882Z,96221.13
2023-04-09T21:57:18.977Z,96224.41
2023-04-09T21:59:50.749Z,96229.69
2023-04-09T22:02:22.413Z,96227.66
2023-04-09T22:04:54.054Z,96229.06
2023-04-09T22:07:26.146Z,96227.31
2023-04-09T22:09:58.226Z,96228.41
2023-04-09T22:12:29.775Z,96230.47
2023-04-09T22:15:01.470Z,96240.06
2023-04-09T22:17:34.369Z,96238.06
2023-04-09T22:20:07.004Z,96242.13
2023-04-09T22:22:38.587Z,96237.44
2023-04-09T22:25:11.677Z,96236.50
2023-04-09T22:27:43.833Z,96239.28
2023-04-09T22:30:15.827Z,96236.78
2023-04-09T22:32:47.679Z,96237.06
2023-04-09T22:35:19.381Z,96245.63
2023-04-09T22:37:50.947Z,96240.78
2023-04-09T22:40:22.444Z,96236.44
2023-04-09T22:42:53.890Z,96232.84
2023-04-09T22:45:27.792Z,96239.06
2023-04-09T22:47:59.410Z,96235.94
2023-04-09T22:50:31.008Z,96242.75
2023-04-09T22:53:02.591Z,96233.53
2023-04-09T22:55:34.096Z,96232.09
2023-04-09T22:58:05.576Z,96227.72
2023-04-09T23:00:39.762Z,96228.47
2023-04-09T23:03:11.462Z,96227.25
2023-04-09T23:05:43.818Z,96228.31
2023-04-09T23:08:15.350Z,96223.34
2023-04-09T23:10:46.975Z,96222.88
2023-04-09T23:13:18.495Z,96219.44
2023-04-09T23:15:50.026Z,96202.81
2023-04-09T23:18:22.918Z,96214.47
2023-04-09T23:20:54.490Z,96216.03
2023-04-09T23:23:25.981Z,96213.88
2023-04-09T23:25:57.528Z,96211.25
2023-04-09T23:28:29.467Z,96203.13
2023-04-09T23:31:01.206Z,96203.13
2023-04-09T23:33:32.822Z,96213.69
2023-04-09T23:36:04.655Z,96211.38
2023-04-09T23:38:36.258Z,96214.78
2023-04-09T23:41:07.825Z,96209.81
2023-04-09T23:43:39.551Z,96203.75
2023-04-09T23:46:11.194Z,96209.34
2023-04-09T23:48:42.715Z,96202.63
2023-04-09T23:51:20.558Z,96203.88
2023-04-09T23:53:52.346Z,96199.69
2023-04-09T23:56:25.067Z,96201.53
2023-04-09T23:58:56.788Z,96198.91
